sensor_id;sensor_type;location;lat;lon;timestamp;P1;durP1;ratioP1;P2;durP2;ratioP2
55706;SDS011;41608;45.384;20.394;2023-02-28T00:00:01;25.02;;;16.48;;
55706;SDS011;41608;45.384;20.394;2023-02-28T00:02:34;27.83;;;17.73;;
55706;SDS011;41608;45.384;20.394;2023-02-28T00:05:00;27.88;;;18.20;;
55706;SDS011;41608;45.384;20.394;2023-02-28T00:07:28;24.55;;;17.02;;
55706;SDS011;41608;45.384;20.394;2023-02-28T00:09:54;28.30;;;19.30;;
55706;SDS011;41608;45.384;20.394;2023-02-28T00:12:20;28.27;;;16.13;;
55706;SDS011;41608;45.384;20.394;2023-02-28T00:14:46;22.90;;;16.58;;
55706;SDS011;41608;45.384;20.394;2023-02-28T00:17:12;26.02;;;17.85;;
55706;SDS011;41608;45.384;20.394;2023-02-28T00:19:38;26.73;;;19.17;;
55706;SDS011;41608;45.384;20.394;2023-02-28T00:22:04;29.00;;;18.63;;
55706;SDS011;41608;45.384;20.394;2023-02-28T00:24:30;35.95;;;19.02;;
55706;SDS011;41608;45.384;20.394;2023-02-28T00:26:56;37.30;;;21.85;;
55706;SDS011;41608;45.384;20.394;2023-02-28T00:29:22;27.42;;;19.25;;
55706;SDS011;41608;45.384;20.394;2023-02-28T00:31:51;28.70;;;20.02;;
55706;SDS011;41608;45.384;20.394;2023-02-28T00:34:17;27.15;;;16.27;;
55706;SDS011;41608;45.384;20.394;2023-02-28T00:36:43;33.80;;;20.60;;
55706;SDS011;41608;45.384;20.394;2023-02-28T00:39:11;29.95;;;20.08;;
55706;SDS011;41608;45.384;20.394;2023-02-28T00:41:37;37.38;;;23.15;;
55706;SDS011;41608;45.384;20.394;2023-02-28T00:44:03;39.05;;;21.83;;
55706;SDS011;41608;45.384;20.394;2023-02-28T00:46:29;37.33;;;24.00;;
55706;SDS011;41608;45.384;20.394;2023-02-28T00:48:55;41.35;;;26.10;;
55706;SDS011;41608;45.384;20.394;2023-02-28T00:51:21;42.97;;;27.50;;
55706;SDS011;41608;45.384;20.394;2023-02-28T00:53:48;41.97;;;24.25;;
55706;SDS011;41608;45.384;20.394;2023-02-28T00:56:14;43.95;;;25.23;;
55706;SDS011;41608;45.384;20.394;2023-02-28T00:58:40;52.70;;;30.52;;
55706;SDS011;41608;45.384;20.394;2023-02-28T01:01:06;54.65;;;32.53;;
55706;SDS011;41608;45.384;20.394;2023-02-28T01:03:32;50.47;;;30.35;;
55706;SDS011;41608;45.384;20.394;2023-02-28T01:05:58;53.75;;;32.20;;
55706;SDS011;41608;45.384;20.394;2023-02-28T01:08:24;59.60;;;34.08;;
55706;SDS011;41608;45.384;20.394;2023-02-28T01:10:51;64.90;;;39.03;;
55706;SDS011;41608;45.384;20.394;2023-02-28T01:13:17;48.30;;;26.55;;
55706;SDS011;41608;45.384;20.394;2023-02-28T01:15:51;58.83;;;33.63;;
55706;SDS011;41608;45.384;20.394;2023-02-28T01:18:17;60.75;;;35.25;;
55706;SDS011;41608;45.384;20.394;2023-02-28T01:20:43;57.50;;;33.42;;
55706;SDS011;41608;45.384;20.394;2023-02-28T01:23:11;68.38;;;34.50;;
55706;SDS011;41608;45.384;20.394;2023-02-28T01:25:37;65.15;;;36.70;;
55706;SDS011;41608;45.384;20.394;2023-02-28T01:28:04;70.07;;;37.60;;
55706;SDS011;41608;45.384;20.394;2023-02-28T01:30:31;63.45;;;36.88;;
55706;SDS011;41608;45.384;20.394;2023-02-28T01:32:57;59.38;;;33.85;;
55706;SDS011;41608;45.384;20.394;2023-02-28T01:35:23;67.13;;;36.80;;
55706;SDS011;41608;45.384;20.394;2023-02-28T01:37:49;68.60;;;37.22;;
55706;SDS011;41608;45.384;20.394;2023-02-28T01:40:16;74.85;;;39.00;;
55706;SDS011;41608;45.384;20.394;2023-02-28T01:42:42;78.70;;;47.10;;
55706;SDS011;41608;45.384;20.394;2023-02-28T01:45:25;84.55;;;47.83;;
55706;SDS011;41608;45.384;20.394;2023-02-28T01:47:52;75.55;;;43.40;;
55706;SDS011;41608;45.384;20.394;2023-02-28T01:50:21;76.03;;;40.63;;
55706;SDS011;41608;45.384;20.394;2023-02-28T01:52:48;79.70;;;43.15;;
55706;SDS011;41608;45.384;20.394;2023-02-28T01:55:16;88.40;;;49.33;;
55706;SDS011;41608;45.384;20.394;2023-02-28T01:57:45;84.40;;;47.67;;
55706;SDS011;41608;45.384;20.394;2023-02-28T02:00:13;86.72;;;45.83;;
55706;SDS011;41608;45.384;20.394;2023-02-28T02:02:43;79.22;;;41.30;;
55706;SDS011;41608;45.384;20.394;2023-02-28T02:05:11;80.57;;;41.88;;
55706;SDS011;41608;45.384;20.394;2023-02-28T02:07:38;67.57;;;45.63;;
55706;SDS011;41608;45.384;20.394;2023-02-28T02:10:10;74.82;;;46.97;;
55706;SDS011;41608;45.384;20.394;2023-02-28T02:15:11;64.95;;;40.53;;
55706;SDS011;41608;45.384;20.394;2023-02-28T02:17:39;80.15;;;43.95;;
55706;SDS011;41608;45.384;20.394;2023-02-28T02:25:25;79.38;;;40.75;;
55706;SDS011;41608;45.384;20.394;2023-02-28T02:35:57;75.10;;;45.07;;
55706;SDS011;41608;45.384;20.394;2023-02-28T02:46:15;77.70;;;46.85;;
55706;SDS011;41608;45.384;20.394;2023-02-28T02:48:43;81.20;;;48.00;;
55706;SDS011;41608;45.384;20.394;2023-02-28T02:51:12;80.65;;;48.75;;
55706;SDS011;41608;45.384;20.394;2023-02-28T02:53:53;85.88;;;50.38;;
55706;SDS011;41608;45.384;20.394;2023-02-28T02:56:21;82.93;;;42.65;;
55706;SDS011;41608;45.384;20.394;2023-02-28T02:58:49;79.95;;;46.30;;
55706;SDS011;41608;45.384;20.394;2023-02-28T03:01:20;93.85;;;48.78;;
55706;SDS011;41608;45.384;20.394;2023-02-28T03:03:53;80.20;;;48.30;;
55706;SDS011;41608;45.384;20.394;2023-02-28T03:06:20;81.05;;;45.90;;
55706;SDS011;41608;45.384;20.394;2023-02-28T03:08:46;86.72;;;49.42;;
55706;SDS011;41608;45.384;20.394;2023-02-28T03:11:13;78.13;;;45.78;;
55706;SDS011;41608;45.384;20.394;2023-02-28T03:18:53;68.22;;;39.03;;
55706;SDS011;41608;45.384;20.394;2023-02-28T03:21:23;92.70;;;50.50;;
55706;SDS011;41608;45.384;20.394;2023-02-28T03:26:21;81.15;;;44.67;;
55706;SDS011;41608;45.384;20.394;2023-02-28T03:31:22;80.05;;;42.80;;
55706;SDS011;41608;45.384;20.394;2023-02-28T03:33:51;75.88;;;42.20;;
55706;SDS011;41608;45.384;20.394;2023-02-28T03:36:22;72.28;;;43.92;;
55706;SDS011;41608;45.384;20.394;2023-02-28T03:39:14;69.43;;;42.03;;
55706;SDS011;41608;45.384;20.394;2023-02-28T03:41:41;72.45;;;41.30;;
55706;SDS011;41608;45.384;20.394;2023-02-28T03:44:16;64.85;;;37.47;;
55706;SDS011;41608;45.384;20.394;2023-02-28T03:46:44;67.43;;;39.55;;
55706;SDS011;41608;45.384;20.394;2023-02-28T03:49:17;69.22;;;37.17;;
55706;SDS011;41608;45.384;20.394;2023-02-28T03:51:44;62.83;;;36.78;;
55706;SDS011;41608;45.384;20.394;2023-02-28T03:54:13;72.70;;;38.70;;
55706;SDS011;41608;45.384;20.394;2023-02-28T03:59:13;63.47;;;36.72;;
55706;SDS011;41608;45.384;20.394;2023-02-28T04:01:41;65.10;;;37.30;;
55706;SDS011;41608;45.384;20.394;2023-02-28T04:04:11;61.80;;;36.30;;
55706;SDS011;41608;45.384;20.394;2023-02-28T04:06:41;60.17;;;33.78;;
55706;SDS011;41608;45.384;20.394;2023-02-28T04:09:08;63.95;;;39.67;;
55706;SDS011;41608;45.384;20.394;2023-02-28T04:11:44;68.25;;;38.30;;
55706;SDS011;41608;45.384;20.394;2023-02-28T04:14:11;63.42;;;32.50;;
55706;SDS011;41608;45.384;20.394;2023-02-28T04:16:38;64.85;;;38.17;;
55706;SDS011;41608;45.384;20.394;2023-02-28T04:19:05;69.43;;;40.25;;
55706;SDS011;41608;45.384;20.394;2023-02-28T04:21:33;76.85;;;41.75;;
55706;SDS011;41608;45.384;20.394;2023-02-28T04:23:59;63.55;;;36.35;;
55706;SDS011;41608;45.384;20.394;2023-02-28T04:26:28;78.90;;;41.63;;
55706;SDS011;41608;45.384;20.394;2023-02-28T04:28:55;78.82;;;42.38;;
55706;SDS011;41608;45.384;20.394;2023-02-28T04:31:21;70.22;;;41.00;;
55706;SDS011;41608;45.384;20.394;2023-02-28T04:33:47;77.55;;;42.78;;
55706;SDS011;41608;45.384;20.394;2023-02-28T04:36:13;64.43;;;39.35;;
55706;SDS011;41608;45.384;20.394;2023-02-28T04:38:39;70.22;;;41.83;;
55706;SDS011;41608;45.384;20.394;2023-02-28T04:41:05;77.18;;;40.15;;
55706;SDS011;41608;45.384;20.394;2023-02-28T04:43:32;60.63;;;35.78;;
55706;SDS011;41608;45.384;20.394;2023-02-28T04:46:00;71.63;;;39.47;;
55706;SDS011;41608;45.384;20.394;2023-02-28T04:48:27;72.75;;;39.95;;
55706;SDS011;41608;45.384;20.394;2023-02-28T04:50:54;65.03;;;35.78;;
55706;SDS011;41608;45.384;20.394;2023-02-28T04:53:20;65.03;;;37.35;;
55706;SDS011;41608;45.384;20.394;2023-02-28T04:55:46;67.28;;;39.97;;
55706;SDS011;41608;45.384;20.394;2023-02-28T04:58:13;65.05;;;38.08;;
55706;SDS011;41608;45.384;20.394;2023-02-28T05:00:39;70.10;;;37.35;;
55706;SDS011;41608;45.384;20.394;2023-02-28T05:03:05;73.68;;;39.63;;
55706;SDS011;41608;45.384;20.394;2023-02-28T05:05:31;62.47;;;39.72;;
55706;SDS011;41608;45.384;20.394;2023-02-28T05:07:57;68.20;;;38.35;;
55706;SDS011;41608;45.384;20.394;2023-02-28T05:10:23;66.95;;;39.40;;
55706;SDS011;41608;45.384;20.394;2023-02-28T05:12:49;68.68;;;38.25;;
55706;SDS011;41608;45.384;20.394;2023-02-28T05:15:16;67.47;;;39.65;;
55706;SDS011;41608;45.384;20.394;2023-02-28T05:17:42;66.50;;;39.08;;
55706;SDS011;41608;45.384;20.394;2023-02-28T05:20:11;63.35;;;39.45;;
55706;SDS011;41608;45.384;20.394;2023-02-28T05:22:38;66.03;;;35.85;;
55706;SDS011;41608;45.384;20.394;2023-02-28T05:25:04;56.33;;;34.83;;
55706;SDS011;41608;45.384;20.394;2023-02-28T05:27:30;63.60;;;34.58;;
55706;SDS011;41608;45.384;20.394;2023-02-28T05:29:57;65.10;;;37.40;;
55706;SDS011;41608;45.384;20.394;2023-02-28T05:32:23;59.75;;;36.60;;
55706;SDS011;41608;45.384;20.394;2023-02-28T05:34:50;60.42;;;34.33;;
55706;SDS011;41608;45.384;20.394;2023-02-28T05:37:16;61.55;;;33.10;;
55706;SDS011;41608;45.384;20.394;2023-02-28T05:39:42;57.78;;;34.67;;
55706;SDS011;41608;45.384;20.394;2023-02-28T05:42:08;65.07;;;38.47;;
55706;SDS011;41608;45.384;20.394;2023-02-28T05:44:35;70.07;;;38.47;;
55706;SDS011;41608;45.384;20.394;2023-02-28T05:47:01;65.55;;;35.67;;
55706;SDS011;41608;45.384;20.394;2023-02-28T05:49:27;59.15;;;35.72;;
55706;SDS011;41608;45.384;20.394;2023-02-28T05:51:53;63.63;;;36.88;;
55706;SDS011;41608;45.384;20.394;2023-02-28T05:54:19;52.92;;;29.67;;
55706;SDS011;41608;45.384;20.394;2023-02-28T05:56:45;66.80;;;36.92;;
55706;SDS011;41608;45.384;20.394;2023-02-28T05:59:12;63.40;;;35.13;;
55706;SDS011;41608;45.384;20.394;2023-02-28T06:04:05;54.95;;;31.67;;
55706;SDS011;41608;45.384;20.394;2023-02-28T06:06:31;61.47;;;36.15;;
55706;SDS011;41608;45.384;20.394;2023-02-28T06:09:02;72.15;;;37.28;;
55706;SDS011;41608;45.384;20.394;2023-02-28T06:11:28;67.13;;;35.60;;
55706;SDS011;41608;45.384;20.394;2023-02-28T06:13:55;76.80;;;42.92;;
55706;SDS011;41608;45.384;20.394;2023-02-28T06:16:21;74.60;;;43.78;;
55706;SDS011;41608;45.384;20.394;2023-02-28T06:18:47;85.82;;;45.30;;
55706;SDS011;41608;45.384;20.394;2023-02-28T06:21:13;70.03;;;39.15;;
55706;SDS011;41608;45.384;20.394;2023-02-28T06:23:39;87.57;;;48.05;;
55706;SDS011;41608;45.384;20.394;2023-02-28T06:26:06;75.43;;;44.45;;
55706;SDS011;41608;45.384;20.394;2023-02-28T06:28:32;79.30;;;42.80;;
55706;SDS011;41608;45.384;20.394;2023-02-28T06:30:58;66.95;;;39.63;;
55706;SDS011;41608;45.384;20.394;2023-02-28T06:33:24;70.78;;;40.40;;
55706;SDS011;41608;45.384;20.394;2023-02-28T06:35:50;58.67;;;37.97;;
55706;SDS011;41608;45.384;20.394;2023-02-28T06:38:17;64.47;;;37.15;;
55706;SDS011;41608;45.384;20.394;2023-02-28T06:40:43;75.70;;;40.75;;
55706;SDS011;41608;45.384;20.394;2023-02-28T06:43:09;70.47;;;40.53;;
55706;SDS011;41608;45.384;20.394;2023-02-28T06:45:42;76.93;;;44.28;;
55706;SDS011;41608;45.384;20.394;2023-02-28T06:48:08;77.15;;;45.10;;
55706;SDS011;41608;45.384;20.394;2023-02-28T06:50:35;81.18;;;46.55;;
55706;SDS011;41608;45.384;20.394;2023-02-28T06:53:01;91.30;;;50.08;;
55706;SDS011;41608;45.384;20.394;2023-02-28T06:55:27;88.00;;;46.90;;
55706;SDS011;41608;45.384;20.394;2023-02-28T06:57:54;80.88;;;46.47;;
55706;SDS011;41608;45.384;20.394;2023-02-28T07:00:20;84.95;;;46.60;;
55706;SDS011;41608;45.384;20.394;2023-02-28T07:02:46;108.63;;;61.55;;
55706;SDS011;41608;45.384;20.394;2023-02-28T07:05:12;95.40;;;53.35;;
55706;SDS011;41608;45.384;20.394;2023-02-28T07:07:39;106.38;;;55.85;;
55706;SDS011;41608;45.384;20.394;2023-02-28T07:10:09;98.78;;;51.85;;
55706;SDS011;41608;45.384;20.394;2023-02-28T07:12:36;96.75;;;50.88;;
55706;SDS011;41608;45.384;20.394;2023-02-28T07:15:03;96.25;;;54.03;;
55706;SDS011;41608;45.384;20.394;2023-02-28T07:17:29;93.63;;;51.90;;
55706;SDS011;41608;45.384;20.394;2023-02-28T07:19:55;79.80;;;49.63;;
55706;SDS011;41608;45.384;20.394;2023-02-28T07:22:21;91.55;;;47.35;;
55706;SDS011;41608;45.384;20.394;2023-02-28T07:24:47;85.18;;;47.97;;
55706;SDS011;41608;45.384;20.394;2023-02-28T07:27:13;86.05;;;48.45;;
55706;SDS011;41608;45.384;20.394;2023-02-28T07:29:49;107.95;;;51.17;;
55706;SDS011;41608;45.384;20.394;2023-02-28T07:32:15;99.72;;;49.35;;
55706;SDS011;41608;45.384;20.394;2023-02-28T07:34:41;83.50;;;46.83;;
55706;SDS011;41608;45.384;20.394;2023-02-28T07:37:07;80.95;;;46.45;;
55706;SDS011;41608;45.384;20.394;2023-02-28T07:39:33;92.82;;;48.03;;
55706;SDS011;41608;45.384;20.394;2023-02-28T07:41:59;77.20;;;46.08;;
55706;SDS011;41608;45.384;20.394;2023-02-28T07:44:28;87.65;;;48.60;;
55706;SDS011;41608;45.384;20.394;2023-02-28T07:46:54;88.00;;;50.30;;
55706;SDS011;41608;45.384;20.394;2023-02-28T07:49:20;87.25;;;48.85;;
55706;SDS011;41608;45.384;20.394;2023-02-28T07:51:46;84.13;;;46.08;;
55706;SDS011;41608;45.384;20.394;2023-02-28T07:54:12;80.25;;;46.67;;
55706;SDS011;41608;45.384;20.394;2023-02-28T07:56:38;86.18;;;45.92;;
55706;SDS011;41608;45.384;20.394;2023-02-28T07:59:05;87.32;;;52.10;;
55706;SDS011;41608;45.384;20.394;2023-02-28T08:01:31;93.10;;;51.95;;
55706;SDS011;41608;45.384;20.394;2023-02-28T08:03:57;88.47;;;48.92;;
55706;SDS011;41608;45.384;20.394;2023-02-28T08:06:24;83.20;;;50.63;;
55706;SDS011;41608;45.384;20.394;2023-02-28T08:08:51;87.70;;;52.45;;
55706;SDS011;41608;45.384;20.394;2023-02-28T08:11:18;89.13;;;46.58;;
55706;SDS011;41608;45.384;20.394;2023-02-28T08:13:45;101.50;;;57.92;;
55706;SDS011;41608;45.384;20.394;2023-02-28T08:16:11;90.78;;;51.72;;
55706;SDS011;41608;45.384;20.394;2023-02-28T08:18:42;93.13;;;54.75;;
55706;SDS011;41608;45.384;20.394;2023-02-28T08:21:09;95.05;;;54.13;;
55706;SDS011;41608;45.384;20.394;2023-02-28T08:23:37;84.03;;;50.05;;
55706;SDS011;41608;45.384;20.394;2023-02-28T08:26:04;87.25;;;50.42;;
55706;SDS011;41608;45.384;20.394;2023-02-28T08:28:30;90.50;;;51.78;;
55706;SDS011;41608;45.384;20.394;2023-02-28T08:30:56;96.10;;;57.95;;
55706;SDS011;41608;45.384;20.394;2023-02-28T08:33:23;89.38;;;56.60;;
55706;SDS011;41608;45.384;20.394;2023-02-28T08:35:51;94.40;;;55.47;;
55706;SDS011;41608;45.384;20.394;2023-02-28T08:38:17;92.90;;;55.28;;
55706;SDS011;41608;45.384;20.394;2023-02-28T08:40:43;82.47;;;51.63;;
55706;SDS011;41608;45.384;20.394;2023-02-28T08:43:09;92.03;;;51.33;;
55706;SDS011;41608;45.384;20.394;2023-02-28T08:45:35;95.15;;;53.45;;
55706;SDS011;41608;45.384;20.394;2023-02-28T08:48:01;95.28;;;56.00;;
55706;SDS011;41608;45.384;20.394;2023-02-28T08:50:28;100.60;;;58.50;;
55706;SDS011;41608;45.384;20.394;2023-02-28T08:52:54;101.70;;;57.97;;
55706;SDS011;41608;45.384;20.394;2023-02-28T08:55:20;100.45;;;60.97;;
55706;SDS011;41608;45.384;20.394;2023-02-28T08:57:48;101.10;;;57.40;;
55706;SDS011;41608;45.384;20.394;2023-02-28T09:00:14;87.07;;;47.58;;
55706;SDS011;41608;45.384;20.394;2023-02-28T09:02:40;93.57;;;57.05;;
55706;SDS011;41608;45.384;20.394;2023-02-28T09:05:08;105.10;;;59.05;;
55706;SDS011;41608;45.384;20.394;2023-02-28T09:07:34;115.90;;;64.60;;
55706;SDS011;41608;45.384;20.394;2023-02-28T09:10:00;93.70;;;56.47;;
55706;SDS011;41608;45.384;20.394;2023-02-28T09:12:27;107.75;;;57.45;;
55706;SDS011;41608;45.384;20.394;2023-02-28T09:14:57;107.72;;;58.17;;
55706;SDS011;41608;45.384;20.394;2023-02-28T09:17:23;84.20;;;50.58;;
55706;SDS011;41608;45.384;20.394;2023-02-28T09:19:49;94.45;;;57.88;;
55706;SDS011;41608;45.384;20.394;2023-02-28T09:22:16;99.45;;;56.63;;
55706;SDS011;41608;45.384;20.394;2023-02-28T09:24:42;81.97;;;50.35;;
55706;SDS011;41608;45.384;20.394;2023-02-28T09:27:09;96.63;;;51.70;;
55706;SDS011;41608;45.384;20.394;2023-02-28T09:29:35;103.25;;;55.42;;
55706;SDS011;41608;45.384;20.394;2023-02-28T09:32:01;96.10;;;52.42;;
55706;SDS011;41608;45.384;20.394;2023-02-28T09:34:28;100.63;;;56.28;;
55706;SDS011;41608;45.384;20.394;2023-02-28T09:36:57;87.93;;;50.15;;
55706;SDS011;41608;45.384;20.394;2023-02-28T09:39:23;86.03;;;52.30;;
55706;SDS011;41608;45.384;20.394;2023-02-28T09:41:51;100.60;;;57.53;;
55706;SDS011;41608;45.384;20.394;2023-02-28T09:44:31;100.07;;;57.10;;
55706;SDS011;41608;45.384;20.394;2023-02-28T09:49:49;100.10;;;54.22;;
55706;SDS011;41608;45.384;20.394;2023-02-28T09:52:20;92.95;;;52.97;;
55706;SDS011;41608;45.384;20.394;2023-02-28T09:54:47;104.65;;;59.40;;
55706;SDS011;41608;45.384;20.394;2023-02-28T09:57:32;97.70;;;55.55;;
55706;SDS011;41608;45.384;20.394;2023-02-28T10:00:05;95.85;;;58.33;;
55706;SDS011;41608;45.384;20.394;2023-02-28T10:02:46;109.82;;;56.58;;
55706;SDS011;41608;45.384;20.394;2023-02-28T10:05:18;91.53;;;54.95;;
55706;SDS011;41608;45.384;20.394;2023-02-28T10:08:02;100.78;;;56.05;;
55706;SDS011;41608;45.384;20.394;2023-02-28T10:12:57;97.93;;;59.03;;
55706;SDS011;41608;45.384;20.394;2023-02-28T10:15:25;97.00;;;58.97;;
55706;SDS011;41608;45.384;20.394;2023-02-28T10:18:06;106.85;;;59.50;;
55706;SDS011;41608;45.384;20.394;2023-02-28T10:20:37;97.22;;;56.95;;
55706;SDS011;41608;45.384;20.394;2023-02-28T10:25:32;91.40;;;57.80;;
55706;SDS011;41608;45.384;20.394;2023-02-28T10:28:01;96.97;;;56.83;;
55706;SDS011;41608;45.384;20.394;2023-02-28T10:30:27;97.90;;;56.88;;
55706;SDS011;41608;45.384;20.394;2023-02-28T10:32:53;98.55;;;57.90;;
55706;SDS011;41608;45.384;20.394;2023-02-28T10:35:23;100.85;;;59.00;;
55706;SDS011;41608;45.384;20.394;2023-02-28T10:37:54;89.38;;;56.97;;
55706;SDS011;41608;45.384;20.394;2023-02-28T10:42:56;102.18;;;59.30;;
55706;SDS011;41608;45.384;20.394;2023-02-28T10:45:23;84.15;;;52.92;;
55706;SDS011;41608;45.384;20.394;2023-02-28T10:50:36;87.65;;;53.42;;
55706;SDS011;41608;45.384;20.394;2023-02-28T11:01:15;63.58;;;39.00;;
55706;SDS011;41608;45.384;20.394;2023-02-28T11:03:41;56.75;;;36.15;;
55706;SDS011;41608;45.384;20.394;2023-02-28T11:06:08;49.80;;;34.28;;
55706;SDS011;41608;45.384;20.394;2023-02-28T11:08:57;54.05;;;34.55;;
55706;SDS011;41608;45.384;20.394;2023-02-28T11:11:24;61.47;;;37.88;;
55706;SDS011;41608;45.384;20.394;2023-02-28T11:13:52;63.15;;;37.10;;
55706;SDS011;41608;45.384;20.394;2023-02-28T11:16:19;58.33;;;38.67;;
55706;SDS011;41608;45.384;20.394;2023-02-28T11:18:50;52.85;;;32.72;;
55706;SDS011;41608;45.384;20.394;2023-02-28T11:21:22;50.22;;;34.20;;
55706;SDS011;41608;45.384;20.394;2023-02-28T11:23:49;51.95;;;34.17;;
55706;SDS011;41608;45.384;20.394;2023-02-28T11:26:17;50.40;;;33.30;;
55706;SDS011;41608;45.384;20.394;2023-02-28T11:29:11;55.28;;;32.15;;
55706;SDS011;41608;45.384;20.394;2023-02-28T11:31:37;59.72;;;36.38;;
55706;SDS011;41608;45.384;20.394;2023-02-28T11:34:10;50.53;;;35.10;;
55706;SDS011;41608;45.384;20.394;2023-02-28T11:36:47;59.70;;;38.35;;
55706;SDS011;41608;45.384;20.394;2023-02-28T11:39:13;46.42;;;31.45;;
55706;SDS011;41608;45.384;20.394;2023-02-28T11:44:23;46.90;;;30.27;;
55706;SDS011;41608;45.384;20.394;2023-02-28T11:57:28;48.58;;;29.00;;
55706;SDS011;41608;45.384;20.394;2023-02-28T12:10:57;39.90;;;26.07;;
55706;SDS011;41608;45.384;20.394;2023-02-28T12:29:23;44.40;;;28.02;;
55706;SDS011;41608;45.384;20.394;2023-02-28T12:31:58;40.53;;;26.48;;
55706;SDS011;41608;45.384;20.394;2023-02-28T12:34:27;40.45;;;26.60;;
55706;SDS011;41608;45.384;20.394;2023-02-28T12:36:54;39.30;;;25.02;;
55706;SDS011;41608;45.384;20.394;2023-02-28T12:46:49;45.13;;;28.73;;
55706;SDS011;41608;45.384;20.394;2023-02-28T12:49:17;53.28;;;30.77;;
55706;SDS011;41608;45.384;20.394;2023-02-28T12:51:44;59.55;;;38.00;;
55706;SDS011;41608;45.384;20.394;2023-02-28T12:54:18;56.78;;;35.58;;
55706;SDS011;41608;45.384;20.394;2023-02-28T13:09:36;48.25;;;29.25;;
55706;SDS011;41608;45.384;20.394;2023-02-28T13:12:06;63.25;;;29.17;;
55706;SDS011;41608;45.384;20.394;2023-02-28T13:14:37;51.83;;;29.33;;
55706;SDS011;41608;45.384;20.394;2023-02-28T13:22:22;41.88;;;26.15;;
55706;SDS011;41608;45.384;20.394;2023-02-28T13:25:02;46.58;;;30.08;;
55706;SDS011;41608;45.384;20.394;2023-02-28T13:27:39;50.80;;;30.00;;
55706;SDS011;41608;45.384;20.394;2023-02-28T13:33:16;44.33;;;26.42;;
55706;SDS011;41608;45.384;20.394;2023-02-28T13:35:37;44.38;;;26.90;;
55706;SDS011;41608;45.384;20.394;2023-02-28T13:38:12;42.60;;;26.35;;
55706;SDS011;41608;45.384;20.394;2023-02-28T13:40:40;47.47;;;27.23;;
55706;SDS011;41608;45.384;20.394;2023-02-28T13:43:07;44.30;;;27.70;;
55706;SDS011;41608;45.384;20.394;2023-02-28T13:45:34;53.60;;;31.38;;
55706;SDS011;41608;45.384;20.394;2023-02-28T13:48:17;52.65;;;32.15;;
55706;SDS011;41608;45.384;20.394;2023-02-28T13:50:44;41.75;;;25.23;;
55706;SDS011;41608;45.384;20.394;2023-02-28T13:58:10;47.53;;;30.15;;
55706;SDS011;41608;45.384;20.394;2023-02-28T14:00:46;44.72;;;28.33;;
55706;SDS011;41608;45.384;20.394;2023-02-28T14:05:47;41.90;;;25.35;;
55706;SDS011;41608;45.384;20.394;2023-02-28T14:08:33;42.10;;;26.48;;
55706;SDS011;41608;45.384;20.394;2023-02-28T14:11:04;41.53;;;23.38;;
55706;SDS011;41608;45.384;20.394;2023-02-28T14:13:43;47.72;;;28.63;;
55706;SDS011;41608;45.384;20.394;2023-02-28T14:16:13;46.83;;;28.17;;
55706;SDS011;41608;45.384;20.394;2023-02-28T14:18:47;43.70;;;27.65;;
55706;SDS011;41608;45.384;20.394;2023-02-28T14:21:16;50.15;;;28.27;;
55706;SDS011;41608;45.384;20.394;2023-02-28T14:23:54;46.30;;;28.52;;
55706;SDS011;41608;45.384;20.394;2023-02-28T14:31:37;44.92;;;28.98;;
55706;SDS011;41608;45.384;20.394;2023-02-28T14:34:17;39.88;;;25.90;;
55706;SDS011;41608;45.384;20.394;2023-02-28T14:36:46;42.40;;;26.98;;
55706;SDS011;41608;45.384;20.394;2023-02-28T14:39:19;42.15;;;26.80;;
55706;SDS011;41608;45.384;20.394;2023-02-28T14:41:46;49.15;;;29.80;;
55706;SDS011;41608;45.384;20.394;2023-02-28T14:44:22;45.95;;;28.17;;
55706;SDS011;41608;45.384;20.394;2023-02-28T14:46:52;46.95;;;30.73;;
55706;SDS011;41608;45.384;20.394;2023-02-28T14:51:45;47.05;;;28.92;;
55706;SDS011;41608;45.384;20.394;2023-02-28T14:54:13;49.38;;;29.90;;
55706;SDS011;41608;45.384;20.394;2023-02-28T14:56:40;45.53;;;29.15;;
55706;SDS011;41608;45.384;20.394;2023-02-28T14:59:21;50.78;;;29.58;;
55706;SDS011;41608;45.384;20.394;2023-02-28T15:01:51;49.80;;;30.55;;
55706;SDS011;41608;45.384;20.394;2023-02-28T15:04:23;48.53;;;29.88;;
55706;SDS011;41608;45.384;20.394;2023-02-28T15:07:11;51.25;;;31.50;;
55706;SDS011;41608;45.384;20.394;2023-02-28T15:09:38;54.75;;;34.00;;
55706;SDS011;41608;45.384;20.394;2023-02-28T15:12:05;60.60;;;34.90;;
55706;SDS011;41608;45.384;20.394;2023-02-28T15:14:31;56.33;;;34.17;;
55706;SDS011;41608;45.384;20.394;2023-02-28T15:16:59;51.10;;;33.90;;
55706;SDS011;41608;45.384;20.394;2023-02-28T15:19:27;55.88;;;32.83;;
55706;SDS011;41608;45.384;20.394;2023-02-28T15:22:00;52.72;;;32.55;;
55706;SDS011;41608;45.384;20.394;2023-02-28T15:24:30;53.80;;;32.05;;
55706;SDS011;41608;45.384;20.394;2023-02-28T15:26:58;52.38;;;32.05;;
55706;SDS011;41608;45.384;20.394;2023-02-28T15:29:25;52.10;;;32.83;;
55706;SDS011;41608;45.384;20.394;2023-02-28T15:34:43;56.75;;;32.55;;
55706;SDS011;41608;45.384;20.394;2023-02-28T15:37:28;45.40;;;30.05;;
55706;SDS011;41608;45.384;20.394;2023-02-28T15:39:56;59.78;;;34.50;;
55706;SDS011;41608;45.384;20.394;2023-02-28T15:42:27;70.65;;;42.65;;
55706;SDS011;41608;45.384;20.394;2023-02-28T15:44:53;90.65;;;56.15;;
55706;SDS011;41608;45.384;20.394;2023-02-28T15:47:27;63.85;;;38.83;;
55706;SDS011;41608;45.384;20.394;2023-02-28T15:50:04;72.43;;;44.38;;
55706;SDS011;41608;45.384;20.394;2023-02-28T15:57:38;63.17;;;36.70;;
55706;SDS011;41608;45.384;20.394;2023-02-28T16:00:05;68.65;;;44.58;;
55706;SDS011;41608;45.384;20.394;2023-02-28T16:02:34;67.70;;;39.10;;
55706;SDS011;41608;45.384;20.394;2023-02-28T16:07:40;78.03;;;44.25;;
55706;SDS011;41608;45.384;20.394;2023-02-28T16:10:08;68.13;;;43.03;;
55706;SDS011;41608;45.384;20.394;2023-02-28T16:12:37;69.72;;;39.92;;
55706;SDS011;41608;45.384;20.394;2023-02-28T16:15:20;69.40;;;40.47;;
55706;SDS011;41608;45.384;20.394;2023-02-28T16:17:47;76.75;;;46.28;;
55706;SDS011;41608;45.384;20.394;2023-02-28T16:20:20;77.70;;;48.58;;
55706;SDS011;41608;45.384;20.394;2023-02-28T16:22:47;76.07;;;44.72;;
55706;SDS011;41608;45.384;20.394;2023-02-28T16:25:13;69.90;;;45.35;;
55706;SDS011;41608;45.384;20.394;2023-02-28T16:27:39;79.80;;;48.70;;
55706;SDS011;41608;45.384;20.394;2023-02-28T16:30:07;78.95;;;46.95;;
55706;SDS011;41608;45.384;20.394;2023-02-28T16:32:34;71.82;;;41.42;;
55706;SDS011;41608;45.384;20.394;2023-02-28T16:35:01;77.47;;;44.38;;
55706;SDS011;41608;45.384;20.394;2023-02-28T16:37:27;83.53;;;51.17;;
55706;SDS011;41608;45.384;20.394;2023-02-28T16:39:53;84.55;;;48.80;;
55706;SDS011;41608;45.384;20.394;2023-02-28T16:42:23;100.07;;;54.25;;
55706;SDS011;41608;45.384;20.394;2023-02-28T16:44:51;128.43;;;73.57;;
55706;SDS011;41608;45.384;20.394;2023-02-28T16:47:17;118.35;;;65.90;;
55706;SDS011;41608;45.384;20.394;2023-02-28T16:49:44;98.28;;;57.50;;